Sbi Mazurka — D5LD4 — position and weather

sailwx.info

Track history (hours):
 
Tides and Currents Weather Stations Pressure Air Temp Water Temp Dewpoint Dewpoint Depression Visibility Wind Speed Wind Dir Waves Ship Positions

Sbi Mazurka

Last reported at 2018-Mar-26 23:35 UTC. Time now 2018-Apr-23 05:11 UTC.
Position S 00°11' W 047°22'.
Warning: this ship's position is 27 days out of date.

Length 229 m; draft 7.6 m.

Type: Cargo ship. MMSI: 636017475.

Date/timePositionNaut miles runAvg speedWind from/ knotsBaromVisibWave heightAir tempDewpointWater temp
2018-Mar-26 23:35S 00°11' W 047°22'0 0.8
2018-Mar-26 23:28S 00°11' W 047°23'1 1.1
2018-Mar-26 22:55S 00°12' W 047°23'1 1.1
2018-Mar-26 22:17S 00°12' W 047°23'0 0.9
2018-Mar-26 21:59S 00°13' W 047°24'0 0.7
2018-Mar-26 21:28S 00°13' W 047°24'0 0.8
2018-Mar-26 20:55S 00°13' W 047°24'1 1.1
2018-Mar-26 20:25S 00°14' W 047°24'1 1.2
2018-Mar-26 19:59S 00°14' W 047°23'1 1.1
2018-Mar-26 19:28S 00°14' W 047°23'1 1.1
2018-Mar-26 18:55S 00°14' W 047°22'1 1.0
2018-Mar-26 18:25S 00°14' W 047°22'0 1.1
2018-Mar-26 17:58S 00°14' W 047°21'0 1.0
2018-Mar-26 17:28S 00°14' W 047°21'1 1.2
2018-Mar-26 16:56S 00°14' W 047°20'0 0.9
2018-Mar-26 16:28S 00°13' W 047°20'1 1.1
2018-Mar-26 15:58S 00°13' W 047°20'1 1.0
2018-Mar-26 15:28S 00°12' W 047°19'0 0.5
2018-Mar-26 14:49S 00°12' W 047°19'0 0.3
2018-Mar-26 14:25S 00°12' W 047°19'0 0.2
2018-Mar-26 13:31S 00°12' W 047°19'0 0.2
2018-Mar-26 13:19S 00°12' W 047°19'0 0.6
2018-Mar-26 12:49S 00°12' W 047°19'0 0.7
2018-Mar-26 12:22S 00°12' W 047°19'0 0.9
2018-Mar-26 11:59S 00°13' W 047°20'4 0.7
2018-Mar-26 06:11S 00°17' W 047°20'0 0.7
2018-Mar-26 05:52S 00°16' W 047°20'1 1.3
2018-Mar-26 05:30S 00°16' W 047°19'0 0.9
2018-Mar-26 04:58S 00°16' W 047°19'1 1.2
2018-Mar-26 04:28S 00°16' W 047°19'1 1.5
2018-Mar-26 03:55S 00°15' W 047°18'1 1.4
2018-Mar-26 03:28S 00°15' W 047°18'3 0.6
2018-Mar-25 21:52S 00°12' W 047°20'2 0.9
2018-Mar-25 19:58S 00°13' W 047°22'1 0.6
2018-Mar-25 19:04S 00°13' W 047°22'0 0.5
2018-Mar-25 18:55S 00°13' W 047°22'0 0.3
2018-Mar-25 18:28S 00°13' W 047°22'0 0.1
2018-Mar-25 17:58S 00°13' W 047°22'0 0.7
2018-Mar-25 17:28S 00°13' W 047°22'0 0.6
2018-Mar-25 16:58S 00°13' W 047°21'0 0.8
2018-Mar-25 16:28S 00°13' W 047°21'0 0.6
2018-Mar-25 15:58S 00°13' W 047°21'1 1.1
2018-Mar-25 15:28S 00°12' W 047°21'1 1.1
2018-Mar-25 14:58S 00°12' W 047°20'0 0.5
2018-Mar-25 14:13S 00°12' W 047°20'1 0.8
2018-Mar-25 12:37S 00°11' W 047°20'1 1.3
2018-Mar-25 11:37S 00°10' W 047°21'0 1.3
2018-Mar-25 11:25S 00°10' W 047°22'1 1.4
2018-Mar-25 10:58S 00°10' W 047°22'1 1.3
2018-Mar-25 10:28S 00°09' W 047°23'1 1.4
2018-Mar-25 09:40S 00°10' W 047°24'1 1.3
2018-Mar-25 08:50S 00°10' W 047°25'1 1.2
2018-Mar-25 07:58S 00°11' W 047°26'1 1.0
2018-Mar-25 07:01S 00°12' W 047°26'2 0.2
2018-Mar-24 17:35S 00°12' W 047°24'0 1.8
2018-Mar-24 17:30S 00°12' W 047°24'0 0.6
2018-Mar-24 16:58S 00°13' W 047°23'1 1.1
2018-Mar-24 16:28S 00°13' W 047°23'1 1.0
2018-Mar-24 15:55S 00°13' W 047°22'1 2.1
2018-Mar-24 15:30S 00°13' W 047°22'3 0.4
2018-Mar-24 08:19S 00°16' W 047°21'1 1.5
2018-Mar-24 07:58S 00°16' W 047°22'1 1.4
2018-Mar-24 07:20S 00°16' W 047°23'0 1.0
2018-Mar-24 07:00S 00°16' W 047°23'0 0.6
2018-Mar-24 06:30S 00°16' W 047°23'0 0.3
2018-Mar-24 06:00S 00°16' W 047°23'0 0.3
2018-Mar-24 05:29S 00°16' W 047°23'1 0.8
2018-Mar-24 04:08S 00°16' W 047°22'0 1.3
2018-Mar-24 03:59S 00°16' W 047°22'1 1.4
2018-Mar-24 03:29S 00°16' W 047°21'1 1.7
2018-Mar-24 02:59S 00°15' W 047°21'1 1.9
2018-Mar-24 02:27S 00°15' W 047°20'1 2.0
2018-Mar-24 01:59S 00°14' W 047°19'1 2.0
2018-Mar-24 01:29S 00°14' W 047°18'5 0.9
2018-Mar-23 19:29S 00°11' W 047°23'3 7.1
2018-Mar-23 19:00S 00°14' W 047°25'4 8.0
2018-Mar-23 18:30S 00°18' W 047°26'1 2.0
2018-Mar-23 18:00S 00°19' W 047°27'0 0.3
2018-Mar-23 17:30S 00°19' W 047°27'0 0.1
2018-Mar-23 17:00S 00°19' W 047°27'0 0.7
2018-Mar-23 16:30S 00°19' W 047°26'1 1.4
2018-Mar-23 16:00S 00°19' W 047°26'1 1.8
2018-Mar-23 15:30S 00°18' W 047°25'1 2.1
2018-Mar-23 15:00S 00°18' W 047°24'1 2.3
2018-Mar-23 14:30S 00°18' W 047°23'1 2.5
2018-Mar-23 14:00S 00°17' W 047°22'1 2.6
2018-Mar-23 13:30S 00°16' W 047°21'1 2.7
2018-Mar-23 12:59S 00°15' W 047°19'1 2.7
2018-Mar-23 12:30S 00°15' W 047°19'1 2.4
2018-Mar-23 12:00S 00°14' W 047°18'1 1.7
2018-Mar-23 11:30S 00°13' W 047°17'5 1.0
2018-Mar-23 07:09S 00°16' W 047°21'0 3.5
2018-Mar-23 07:00S 00°16' W 047°21'3 6.9
2018-Mar-23 06:30S 00°19' W 047°23'3 6.8
2018-Mar-23 06:00S 00°22' W 047°25'1 2.1
2018-Mar-23 05:29S 00°22' W 047°26'1 1.3
2018-Mar-23 05:00S 00°21' W 047°26'1 1.1
2018-Mar-23 04:29S 00°21' W 047°26'1 1.3
2018-Mar-23 03:59S 00°20' W 047°26'2 1.8
2018-Mar-23 02:53S 00°19' W 047°25'1 2.2
2018-Mar-23 02:29S 00°18' W 047°25'1 2.3
2018-Mar-23 01:59S 00°17' W 047°24'1 2.9
2018-Mar-23 01:29S 00°16' W 047°23'1 2.5
2018-Mar-23 00:59S 00°15' W 047°23'2 2.3
2018-Mar-23 00:13S 00°13' W 047°22'0 2.1
2018-Mar-23 00:00S 00°13' W 047°22'1 2.0
2018-Mar-22 23:29S 00°12' W 047°21'1 1.9
2018-Mar-22 22:47S 00°10' W 047°21'1 2.0
2018-Mar-22 22:15S 00°09' W 047°21'0 1.8
2018-Mar-22 22:00S 00°09' W 047°22'1 1.9
2018-Mar-22 21:14S 00°08' W 047°22'0 2.1
2018-Mar-22 21:00S 00°07' W 047°23'1 2.2
2018-Mar-22 20:29S 00°07' W 047°23'1 2.2
2018-Mar-22 19:52S 00°06' W 047°25'2 2.3
2018-Mar-22 19:11S 00°06' W 047°26'0 2.3
2018-Mar-22 19:01S 00°06' W 047°27'1 1.9
2018-Mar-22 18:24S 00°06' W 047°28'1 1.9
2018-Mar-22 18:00S 00°06' W 047°29'1 1.4
2018-Mar-22 17:21S 00°06' W 047°29'0 1.0
2018-Mar-22 17:01S 00°06' W 047°30'0 0.8
2018-Mar-22 16:23S 00°06' W 047°30'0 0.5
2018-Mar-22 16:00S 00°06' W 047°30'0 0.2
2018-Mar-22 15:30S 00°06' W 047°31'2 3.3
2018-Mar-22 14:48S 00°07' W 047°33'13 7.6
2018-Mar-22 13:08S 00°15' W 047°42'1 6.5
2018-Mar-22 13:00S 00°16' W 047°42'2 4.3
2018-Mar-22 12:30S 00°18' W 047°41'2 3.3
2018-Mar-22 12:00S 00°17' W 047°40'1 2.9
2018-Mar-22 11:30S 00°16' W 047°39'1 2.5
2018-Mar-22 11:00S 00°15' W 047°39'1 1.9
2018-Mar-22 10:27S 00°14' W 047°38'1 1.8
2018-Mar-22 10:00S 00°13' W 047°39'1 1.6
2018-Mar-22 09:30S 00°12' W 047°39'1 1.8
2018-Mar-22 08:55S 00°11' W 047°39'1 1.8
2018-Mar-22 08:30S 00°10' W 047°40'1 2.1
2018-Mar-22 08:00S 00°10' W 047°41'1 2.1
2018-Mar-22 07:30S 00°09' W 047°42'1 2.2
2018-Mar-22 06:59S 00°09' W 047°43'1 1.6
2018-Mar-22 06:30S 00°09' W 047°43'1 1.3
2018-Mar-22 06:00S 00°10' W 047°44'0 0.7
2018-Mar-22 05:30S 00°10' W 047°44'0 0.2
2018-Mar-22 05:00S 00°10' W 047°45'0 0.1
2018-Mar-22 04:30S 00°10' W 047°44'1 1.1
2018-Mar-22 03:57S 00°09' W 047°44'1 1.2
2018-Mar-22 03:28S 00°09' W 047°45'4 8.1
2018-Mar-22 03:00S 00°09' W 047°48'3 5.0
2018-Mar-22 02:30S 00°11' W 047°50'1 1.9
2018-Mar-22 02:00S 00°12' W 047°49'1 2.6
2018-Mar-22 01:30S 00°12' W 047°48'1 2.8
2018-Mar-22 01:00S 00°11' W 047°46'2 2.8
2018-Mar-22 00:26S 00°11' W 047°45'1 3.1
2018-Mar-22 00:00S 00°10' W 047°44'2 3.3
2018-Mar-21 23:27S 00°10' W 047°42'2 2.7
2018-Mar-21 22:53S 00°09' W 047°41'1 1.9
2018-Mar-21 22:26S 00°08' W 047°40'1 1.5
2018-Mar-21 21:59S 00°08' W 047°40'1 1.4
2018-Mar-21 21:26S 00°07' W 047°40'1 1.1
2018-Mar-21 20:59S 00°06' W 047°40'2 0.9
2018-Mar-21 18:48S 00°07' W 047°42'1 3.7
2018-Mar-21 18:30S 00°08' W 047°42'1 2.2
2018-Mar-21 18:00S 00°09' W 047°42'2 4.4
2018-Mar-21 17:30S 00°10' W 047°44'2 4.1
2018-Mar-21 17:00S 00°10' W 047°46'2 4.2
2018-Mar-21 16:28S 00°11' W 047°48'0 0.7
2018-Mar-21 15:58S 00°12' W 047°47'1 1.0
2018-Mar-21 15:28S 00°12' W 047°47'1 1.9
2018-Mar-21 14:55S 00°12' W 047°46'1 2.5
2018-Mar-21 14:30S 00°12' W 047°45'2 3.0
2018-Mar-21 13:59S 00°11' W 047°43'1 2.7
2018-Mar-21 13:29S 00°11' W 047°42'1 2.7
2018-Mar-21 13:00S 00°10' W 047°41'1 3.0
2018-Mar-21 12:30S 00°09' W 047°40'1 2.6
2018-Mar-21 11:58S 00°08' W 047°39'1 2.4
2018-Mar-21 11:28S 00°07' W 047°38'1 2.4
2018-Mar-21 10:58S 00°06' W 047°38'2 2.3
2018-Mar-21 10:16S 00°04' W 047°37'1 1.9
2018-Mar-21 09:52S 00°04' W 047°37'1 1.7
2018-Mar-21 09:29S 00°03' W 047°37'1 1.4
2018-Mar-21 08:54S 00°02' W 047°36'0 0.8
2018-Mar-21 08:30S 00°02' W 047°36'1 0.9
2018-Mar-21 07:56S 00°01' W 047°37'1 1.0
2018-Mar-21 07:18S 00°01' W 047°37'0 0.9
2018-Mar-21 06:59S 00°01' W 047°37'1 1.3
2018-Mar-21 06:30S 00°01' W 047°38'1 1.2
2018-Mar-21 05:52S 00°02' W 047°39'1 1.6
2018-Mar-21 05:28S 00°02' W 047°39'1 1.3
2018-Mar-21 04:59S 00°03' W 047°40'0 0.9
2018-Mar-21 04:28S 00°03' W 047°40'0 0.6
2018-Mar-21 03:58S 00°03' W 047°40'0 0.5
2018-Mar-21 03:28S 00°03' W 047°40'1 1.0
2018-Mar-21 02:55S 00°04' W 047°39'0 0.7
2018-Mar-21 02:14S 00°04' W 047°39'2 9.3
2018-Mar-21 02:01S 00°05' W 047°41'611.1
2018-Mar-21 01:30S 00°07' W 047°46'510.6
2018-Mar-21 01:00S 00°10' W 047°50'5 9.9
2018-Mar-21 00:30S 00°13' W 047°54'5 9.8
2018-Mar-21 00:00S 00°17' W 047°57'5 9.4
2018-Mar-20 23:30S 00°19' W 048°01'510.3
2018-Mar-20 23:00S 00°21' W 048°06'612.3
2018-Mar-20 22:30S 00°24' W 048°11'714.4
2018-Mar-20 22:00S 00°29' W 048°16'815.8
2018-Mar-20 21:30S 00°36' W 048°21'816.3
2018-Mar-20 21:00S 00°43' W 048°25'816.1
2018-Mar-20 20:30S 00°50' W 048°29'714.5
2018-Mar-20 20:01S 00°57' W 048°26'714.6
2018-Mar-20 19:31S 01°03' W 048°30'612.2
2018-Mar-20 19:00S 01°09' W 048°32'4 8.6
2018-Mar-20 18:30S 01°13' W 048°34'612.4
2018-Mar-20 18:00S 01°18' W 048°38'611.7
2018-Mar-20 17:30S 01°22' W 048°41'611.7
2018-Mar-20 17:00S 01°27' W 048°44'510.0
2018-Mar-20 16:30S 01°32' W 048°45'0 0.4
2018-Mar-20 15:58S 01°32' W 048°45'0 0.0
2018-Mar-20 15:28S 01°32' W 048°45'0 0.0
2018-Mar-20 14:46S 01°32' W 048°45'0 0.0
2018-Mar-20 14:28S 01°32' W 048°45'0 0.0
2018-Mar-20 13:58S 01°32' W 048°45'0 0.0
2018-Mar-20 13:28S 01°32' W 048°45'0 0.0
2018-Mar-20 12:52S 01°32' W 048°45'0 0.0
2018-Mar-20 12:28S 01°32' W 048°45'0 0.0
2018-Mar-20 11:58S 01°32' W 048°45'0 0.0
2018-Mar-20 11:28S 01°32' W 048°45'0 0.0
2018-Mar-20 10:58S 01°32' W 048°45'0 0.0
2018-Mar-20 10:28S 01°32' W 048°45'0 0.0
2018-Mar-20 09:52S 01°32' W 048°45'0 0.0
2018-Mar-20 09:27S 01°32' W 048°45'0 0.0
2018-Mar-20 08:58S 01°32' W 048°45'0 0.0
2018-Mar-20 08:28S 01°32' W 048°45'0 0.0
2018-Mar-20 07:58S 01°32' W 048°45'0 0.0
2018-Mar-20 07:10S 01°32' W 048°45'0 0.0
2018-Mar-20 06:52S 01°32' W 048°45'0 0.0
2018-Mar-20 06:31S 01°32' W 048°45'0 0.0
2018-Mar-20 06:01S 01°32' W 048°45'0 0.0
2018-Mar-20 05:31S 01°32' W 048°45'0 0.0
2018-Mar-20 04:58S 01°32' W 048°45'0 0.0
2018-Mar-20 03:19S 01°32' W 048°45'0 0.0
2018-Mar-20 02:54S 01°32' W 048°45'0 0.0
2018-Mar-20 00:22S 01°32' W 048°45'0 0.0
2018-Mar-19 23:58S 01°32' W 048°45'0 0.0
2018-Mar-19 23:28S 01°32' W 048°45'0 0.0
2018-Mar-19 23:00S 01°32' W 048°45'0 0.0
2018-Mar-19 22:30S 01°32' W 048°45'0 0.0
2018-Mar-19 22:01S 01°32' W 048°45'0 0.0
2018-Mar-19 21:28S 01°32' W 048°45'0 0.0
2018-Mar-19 20:58S 01°32' W 048°45'0 0.0
2018-Mar-19 20:27S 01°32' W 048°45'0 0.0
2018-Mar-19 19:51S 01°32' W 048°45'0 0.0
2018-Mar-19 19:13S 01°32' W 048°45'0 0.0
2018-Mar-19 18:55S 01°32' W 048°45'0 0.0
2018-Mar-19 18:30S 01°32' W 048°45'0 0.0
2018-Mar-19 18:01S 01°32' W 048°45'0 0.0
2018-Mar-19 17:30S 01°32' W 048°45'0 0.0
2018-Mar-19 17:00S 01°32' W 048°45'0 0.0
2018-Mar-19 16:24S 01°32' W 048°45'0 0.0
2018-Mar-19 16:00S 01°32' W 048°45'0 0.0
2018-Mar-19 15:30S 01°32' W 048°45'0 0.0
2018-Mar-19 14:55S 01°32' W 048°45'0 0.0
2018-Mar-19 14:25S 01°32' W 048°45'0 0.0
2018-Mar-19 13:54S 01°32' W 048°45'0 0.0
2018-Mar-19 13:31S 01°32' W 048°45'0 0.0
2018-Mar-19 13:00S 01°32' W 048°45'0 0.0
2018-Mar-19 12:30S 01°32' W 048°45'0 0.0
2018-Mar-19 11:54S 01°32' W 048°45'0 0.0
2018-Mar-19 11:31S 01°32' W 048°45'0 0.0
2018-Mar-19 11:01S 01°32' W 048°45'0 0.0
2018-Mar-19 10:30S 01°32' W 048°45'0 0.0
2018-Mar-19 10:00S 01°32' W 048°45'0 0.0
2018-Mar-19 09:25S 01°32' W 048°45'0 0.0
2018-Mar-19 09:00S 01°32' W 048°45'0 0.0
2018-Mar-19 08:31S 01°32' W 048°45'0 0.0
2018-Mar-19 08:00S 01°32' W 048°45'0 0.0
2018-Mar-19 07:30S 01°32' W 048°45'0 0.0
2018-Mar-19 07:00S 01°32' W 048°45'0 0.0
2018-Mar-19 06:30S 01°32' W 048°45'0 0.0
2018-Mar-19 06:00S 01°32' W 048°45'0 0.0
2018-Mar-19 05:30S 01°32' W 048°45'0 0.0
2018-Mar-19 05:00S 01°32' W 048°45'0 0.0
2018-Mar-19 04:30S 01°32' W 048°45'0 0.0
2018-Mar-19 04:00S 01°32' W 048°45'0 0.0
2018-Mar-19 03:24S 01°32' W 048°45'0 0.0
2018-Mar-19 03:00S 01°32' W 048°45'0 0.0
2018-Mar-19 02:30S 01°32' W 048°45'0 0.0
2018-Mar-19 02:00S 01°32' W 048°45'0 0.0
2018-Mar-19 01:30S 01°32' W 048°45'0 0.0
2018-Mar-19 01:00S 01°32' W 048°45'0 0.0
2018-Mar-19 00:30S 01°32' W 048°45'0 0.0
2018-Mar-19 00:00S 01°32' W 048°45'0 0.0
2018-Mar-18 23:30S 01°32' W 048°45'0 0.0
2018-Mar-18 23:00S 01°32' W 048°45'0 0.0
2018-Mar-18 22:24S 01°32' W 048°45'0 0.0
2018-Mar-18 21:57S 01°32' W 048°45'0 0.0
2018-Mar-18 21:30S 01°32' W 048°45'0 0.0
2018-Mar-18 21:00S 01°32' W 048°45'0 0.0
2018-Mar-18 19:42S 01°32' W 048°45'0 0.0
2018-Mar-18 19:30S 01°32' W 048°45'0 0.0
2018-Mar-18 19:00S 01°32' W 048°45'0 0.0
2018-Mar-18 18:24S 01°32' W 048°45'0 0.0
2018-Mar-18 18:00S 01°32' W 048°45'0 0.0
2018-Mar-18 16:18S 01°32' W 048°45'0 0.0
2018-Mar-18 15:42S 01°32' W 048°45'0 0.0
2018-Mar-18 15:24S 01°32' W 048°45'0 0.0
2018-Mar-18 15:00S 01°32' W 048°45'0 0.0
2018-Mar-18 14:30S 01°32' W 048°45'0 0.0
2018-Mar-18 13:54S 01°32' W 048°45'0 0.0
2018-Mar-18 13:30S 01°32' W 048°45'0 0.0
2018-Mar-18 13:00S 01°32' W 048°45'0 0.0
2018-Mar-18 11:42S 01°32' W 048°45'0 0.0
2018-Mar-18 11:24S 01°32' W 048°45'0 0.0
2018-Mar-18 11:00S 01°32' W 048°45'0 0.0
2018-Mar-18 10:30S 01°32' W 048°45'0 0.0
2018-Mar-18 09:54S 01°32' W 048°45'0 0.0
2018-Mar-18 09:30S 01°32' W 048°45'0 0.0
2018-Mar-18 09:00S 01°32' W 048°45'0 0.0
2018-Mar-18 08:24S 01°32' W 048°45'0 0.0
2018-Mar-18 08:00S 01°32' W 048°45'0 0.0
2018-Mar-18 03:03S 01°32' W 048°45'0 0.0
2018-Mar-18 02:57S 01°32' W 048°45'0 0.0
2018-Mar-18 02:27S 01°32' W 048°45'0 0.0
2018-Mar-18 01:57S 01°32' W 048°45'0 0.0
2018-Mar-18 01:27S 01°32' W 048°45'0 0.0
2018-Mar-18 00:57S 01°32' W 048°45'0 0.0
2018-Mar-18 00:27S 01°32' W 048°45'0 0.0
2018-Mar-17 23:51S 01°32' W 048°45'0 0.0
2018-Mar-17 23:27S 01°32' W 048°45'0 0.0
2018-Mar-17 22:51S 01°32' W 048°45'0 0.0
2018-Mar-17 22:27S 01°32' W 048°45'0 0.0
2018-Mar-17 21:51S 01°32' W 048°45'0 0.0
2018-Mar-17 21:21S 01°32' W 048°45'0 0.0
2018-Mar-17 20:57S 01°32' W 048°45'0 0.0
2018-Mar-17 18:06S 01°32' W 048°45'0 0.0
2018-Mar-17 18:00S 01°32' W 048°45'0 0.0
2018-Mar-17 17:30S 01°32' W 048°45'0 0.0
2018-Mar-17 16:57S 01°32' W 048°45'0 0.0
2018-Mar-17 16:27S 01°32' W 048°45'0 0.0
2018-Mar-17 16:00S 01°32' W 048°45'0 0.0
2018-Mar-17 15:27S 01°32' W 048°45'0 0.0
2018-Mar-17 15:00S 01°32' W 048°45'0 0.0
2018-Mar-17 14:30S 01°32' W 048°45'0 0.0
2018-Mar-17 13:57S 01°32' W 048°45'0 0.0
2018-Mar-17 13:27S 01°32' W 048°45'0 0.0
2018-Mar-17 13:00S 01°32' W 048°45'0 0.0
2018-Mar-17 12:30S 01°32' W 048°45'0 0.0
2018-Mar-17 12:00S 01°32' W 048°45'0 0.0
2018-Mar-17 11:30S 01°32' W 048°45'0 0.0
2018-Mar-17 11:00S 01°32' W 048°45'0 0.0
2018-Mar-17 10:30S 01°32' W 048°45'0 0.0
2018-Mar-17 09:57S 01°32' W 048°45'0 0.0
2018-Mar-17 09:30S 01°32' W 048°45'0 0.0
2018-Mar-17 08:57S 01°32' W 048°45'0 0.0
2018-Mar-17 08:30S 01°32' W 048°45'0 0.0
2018-Mar-17 08:00S 01°32' W 048°45'0 0.0
2018-Mar-17 07:30S 01°32' W 048°45'0 0.0
2018-Mar-17 06:57S 01°32' W 048°45'0 0.0
2018-Mar-17 06:27S 01°32' W 048°45'0 0.0
2018-Mar-17 06:00S 01°32' W 048°45'0 0.0
2018-Mar-17 05:30S 01°32' W 048°45'0 0.0
2018-Mar-17 04:57S 01°32' W 048°45'0 0.0
2018-Mar-17 04:30S 01°32' W 048°45'0 0.0
2018-Mar-17 03:51S 01°32' W 048°45'0 0.0
2018-Mar-17 03:30S 01°32' W 048°45'0 0.0
2018-Mar-17 02:57S 01°32' W 048°45'0 0.0
2018-Mar-17 02:30S 01°32' W 048°45'0 0.0
2018-Mar-17 02:00S 01°32' W 048°45'0 0.0
2018-Mar-17 01:30S 01°32' W 048°45'0 0.0
2018-Mar-17 01:00S 01°32' W 048°45'0 0.1
2018-Mar-17 00:30S 01°32' W 048°45'1 1.6
2018-Mar-17 00:00S 01°32' W 048°46'  
Track history (hours):
 
Tides and Currents Weather Stations Pressure Air Temp Water Temp Dewpoint Dewpoint Depression Visibility Wind Speed Wind Dir Waves Ship Positions

Sbi Mazurka

Last reported at 2018-Mar-26 23:35 UTC. Time now 2018-Apr-23 05:11 UTC.
Position S 00°11' W 047°22'.
Warning: this ship's position is 27 days out of date.

Length 229 m; draft 7.6 m.

Type: Cargo ship. MMSI: 636017475.

Date/timePositionNaut miles runAvg speedWind from/ knotsBaromVisibWave heightAir tempDewpointWater temp
2018-Mar-26 23:35S 00°11' W 047°22'0 0.8
2018-Mar-26 23:28S 00°11' W 047°23'1 1.1
2018-Mar-26 22:55S 00°12' W 047°23'1 1.1
2018-Mar-26 22:17S 00°12' W 047°23'0 0.9
2018-Mar-26 21:59S 00°13' W 047°24'0 0.7
2018-Mar-26 21:28S 00°13' W 047°24'0 0.8
2018-Mar-26 20:55S 00°13' W 047°24'1 1.1
2018-Mar-26 20:25S 00°14' W 047°24'1 1.2
2018-Mar-26 19:59S 00°14' W 047°23'1 1.1
2018-Mar-26 19:28S 00°14' W 047°23'1 1.1
2018-Mar-26 18:55S 00°14' W 047°22'1 1.0
2018-Mar-26 18:25S 00°14' W 047°22'0 1.1
2018-Mar-26 17:58S 00°14' W 047°21'0 1.0
2018-Mar-26 17:28S 00°14' W 047°21'1 1.2
2018-Mar-26 16:56S 00°14' W 047°20'0 0.9
2018-Mar-26 16:28S 00°13' W 047°20'1 1.1
2018-Mar-26 15:58S 00°13' W 047°20'1 1.0
2018-Mar-26 15:28S 00°12' W 047°19'0 0.5
2018-Mar-26 14:49S 00°12' W 047°19'0 0.3
2018-Mar-26 14:25S 00°12' W 047°19'0 0.2
2018-Mar-26 13:31S 00°12' W 047°19'0 0.2
2018-Mar-26 13:19S 00°12' W 047°19'0 0.6
2018-Mar-26 12:49S 00°12' W 047°19'0 0.7
2018-Mar-26 12:22S 00°12' W 047°19'0 0.9
2018-Mar-26 11:59S 00°13' W 047°20'4 0.7
2018-Mar-26 06:11S 00°17' W 047°20'0 0.7
2018-Mar-26 05:52S 00°16' W 047°20'1 1.3
2018-Mar-26 05:30S 00°16' W 047°19'0 0.9
2018-Mar-26 04:58S 00°16' W 047°19'1 1.2
2018-Mar-26 04:28S 00°16' W 047°19'1 1.5
2018-Mar-26 03:55S 00°15' W 047°18'1 1.4
2018-Mar-26 03:28S 00°15' W 047°18'3 0.6
2018-Mar-25 21:52S 00°12' W 047°20'2 0.9
2018-Mar-25 19:58S 00°13' W 047°22'1 0.6
2018-Mar-25 19:04S 00°13' W 047°22'0 0.5
2018-Mar-25 18:55S 00°13' W 047°22'0 0.3
2018-Mar-25 18:28S 00°13' W 047°22'0 0.1
2018-Mar-25 17:58S 00°13' W 047°22'0 0.7
2018-Mar-25 17:28S 00°13' W 047°22'0 0.6
2018-Mar-25 16:58S 00°13' W 047°21'0 0.8
2018-Mar-25 16:28S 00°13' W 047°21'0 0.6
2018-Mar-25 15:58S 00°13' W 047°21'1 1.1
2018-Mar-25 15:28S 00°12' W 047°21'1 1.1
2018-Mar-25 14:58S 00°12' W 047°20'0 0.5
2018-Mar-25 14:13S 00°12' W 047°20'1 0.8
2018-Mar-25 12:37S 00°11' W 047°20'1 1.3
2018-Mar-25 11:37S 00°10' W 047°21'0 1.3
2018-Mar-25 11:25S 00°10' W 047°22'1 1.4
2018-Mar-25 10:58S 00°10' W 047°22'1 1.3
2018-Mar-25 10:28S 00°09' W 047°23'1 1.4
2018-Mar-25 09:40S 00°10' W 047°24'1 1.3
2018-Mar-25 08:50S 00°10' W 047°25'1 1.2
2018-Mar-25 07:58S 00°11' W 047°26'1 1.0
2018-Mar-25 07:01S 00°12' W 047°26'2 0.2
2018-Mar-24 17:35S 00°12' W 047°24'0 1.8
2018-Mar-24 17:30S 00°12' W 047°24'0 0.6
2018-Mar-24 16:58S 00°13' W 047°23'1 1.1
2018-Mar-24 16:28S 00°13' W 047°23'1 1.0
2018-Mar-24 15:55S 00°13' W 047°22'1 2.1
2018-Mar-24 15:30S 00°13' W 047°22'3 0.4
2018-Mar-24 08:19S 00°16' W 047°21'1 1.5
2018-Mar-24 07:58S 00°16' W 047°22'1 1.4
2018-Mar-24 07:20S 00°16' W 047°23'0 1.0
2018-Mar-24 07:00S 00°16' W 047°23'0 0.6
2018-Mar-24 06:30S 00°16' W 047°23'0 0.3
2018-Mar-24 06:00S 00°16' W 047°23'0 0.3
2018-Mar-24 05:29S 00°16' W 047°23'1 0.8
2018-Mar-24 04:08S 00°16' W 047°22'0 1.3
2018-Mar-24 03:59S 00°16' W 047°22'1 1.4
2018-Mar-24 03:29S 00°16' W 047°21'1 1.7
2018-Mar-24 02:59S 00°15' W 047°21'1 1.9
2018-Mar-24 02:27S 00°15' W 047°20'1 2.0
2018-Mar-24 01:59S 00°14' W 047°19'1 2.0
2018-Mar-24 01:29S 00°14' W 047°18'5 0.9
2018-Mar-23 19:29S 00°11' W 047°23'3 7.1
2018-Mar-23 19:00S 00°14' W 047°25'4 8.0
2018-Mar-23 18:30S 00°18' W 047°26'1 2.0
2018-Mar-23 18:00S 00°19' W 047°27'0 0.3
2018-Mar-23 17:30S 00°19' W 047°27'0 0.1
2018-Mar-23 17:00S 00°19' W 047°27'0 0.7
2018-Mar-23 16:30S 00°19' W 047°26'1 1.4
2018-Mar-23 16:00S 00°19' W 047°26'1 1.8
2018-Mar-23 15:30S 00°18' W 047°25'1 2.1
2018-Mar-23 15:00S 00°18' W 047°24'1 2.3
2018-Mar-23 14:30S 00°18' W 047°23'1 2.5
2018-Mar-23 14:00S 00°17' W 047°22'1 2.6
2018-Mar-23 13:30S 00°16' W 047°21'1 2.7
2018-Mar-23 12:59S 00°15' W 047°19'1 2.7
2018-Mar-23 12:30S 00°15' W 047°19'1 2.4
2018-Mar-23 12:00S 00°14' W 047°18'1 1.7
2018-Mar-23 11:30S 00°13' W 047°17'5 1.0
2018-Mar-23 07:09S 00°16' W 047°21'0 3.5
2018-Mar-23 07:00S 00°16' W 047°21'3 6.9
2018-Mar-23 06:30S 00°19' W 047°23'3 6.8
2018-Mar-23 06:00S 00°22' W 047°25'1 2.1
2018-Mar-23 05:29S 00°22' W 047°26'1 1.3
2018-Mar-23 05:00S 00°21' W 047°26'1 1.1
2018-Mar-23 04:29S 00°21' W 047°26'1 1.3
2018-Mar-23 03:59S 00°20' W 047°26'2 1.8
2018-Mar-23 02:53S 00°19' W 047°25'1 2.2
2018-Mar-23 02:29S 00°18' W 047°25'1 2.3
2018-Mar-23 01:59S 00°17' W 047°24'1 2.9
2018-Mar-23 01:29S 00°16' W 047°23'1 2.5
2018-Mar-23 00:59S 00°15' W 047°23'2 2.3
2018-Mar-23 00:13S 00°13' W 047°22'0 2.1
2018-Mar-23 00:00S 00°13' W 047°22'1 2.0
2018-Mar-22 23:29S 00°12' W 047°21'1 1.9
2018-Mar-22 22:47S 00°10' W 047°21'1 2.0
2018-Mar-22 22:15S 00°09' W 047°21'0 1.8
2018-Mar-22 22:00S 00°09' W 047°22'1 1.9
2018-Mar-22 21:14S 00°08' W 047°22'0 2.1
2018-Mar-22 21:00S 00°07' W 047°23'1 2.2
2018-Mar-22 20:29S 00°07' W 047°23'1 2.2
2018-Mar-22 19:52S 00°06' W 047°25'2 2.3
2018-Mar-22 19:11S 00°06' W 047°26'0 2.3
2018-Mar-22 19:01S 00°06' W 047°27'1 1.9
2018-Mar-22 18:24S 00°06' W 047°28'1 1.9
2018-Mar-22 18:00S 00°06' W 047°29'1 1.4
2018-Mar-22 17:21S 00°06' W 047°29'0 1.0
2018-Mar-22 17:01S 00°06' W 047°30'0 0.8
2018-Mar-22 16:23S 00°06' W 047°30'0 0.5
2018-Mar-22 16:00S 00°06' W 047°30'0 0.2
2018-Mar-22 15:30S 00°06' W 047°31'2 3.3
2018-Mar-22 14:48S 00°07' W 047°33'13 7.6
2018-Mar-22 13:08S 00°15' W 047°42'1 6.5
2018-Mar-22 13:00S 00°16' W 047°42'2 4.3
2018-Mar-22 12:30S 00°18' W 047°41'2 3.3
2018-Mar-22 12:00S 00°17' W 047°40'1 2.9
2018-Mar-22 11:30S 00°16' W 047°39'1 2.5
2018-Mar-22 11:00S 00°15' W 047°39'1 1.9
2018-Mar-22 10:27S 00°14' W 047°38'1 1.8
2018-Mar-22 10:00S 00°13' W 047°39'1 1.6
2018-Mar-22 09:30S 00°12' W 047°39'1 1.8
2018-Mar-22 08:55S 00°11' W 047°39'1 1.8
2018-Mar-22 08:30S 00°10' W 047°40'1 2.1
2018-Mar-22 08:00S 00°10' W 047°41'1 2.1
2018-Mar-22 07:30S 00°09' W 047°42'1 2.2
2018-Mar-22 06:59S 00°09' W 047°43'1 1.6
2018-Mar-22 06:30S 00°09' W 047°43'1 1.3
2018-Mar-22 06:00S 00°10' W 047°44'0 0.7
2018-Mar-22 05:30S 00°10' W 047°44'0 0.2
2018-Mar-22 05:00S 00°10' W 047°45'0 0.1
2018-Mar-22 04:30S 00°10' W 047°44'1 1.1
2018-Mar-22 03:57S 00°09' W 047°44'1 1.2
2018-Mar-22 03:28S 00°09' W 047°45'4 8.1
2018-Mar-22 03:00S 00°09' W 047°48'3 5.0
2018-Mar-22 02:30S 00°11' W 047°50'1 1.9
2018-Mar-22 02:00S 00°12' W 047°49'1 2.6
2018-Mar-22 01:30S 00°12' W 047°48'1 2.8
2018-Mar-22 01:00S 00°11' W 047°46'2 2.8
2018-Mar-22 00:26S 00°11' W 047°45'1 3.1
2018-Mar-22 00:00S 00°10' W 047°44'2 3.3
2018-Mar-21 23:27S 00°10' W 047°42'2 2.7
2018-Mar-21 22:53S 00°09' W 047°41'1 1.9
2018-Mar-21 22:26S 00°08' W 047°40'1 1.5
2018-Mar-21 21:59S 00°08' W 047°40'1 1.4
2018-Mar-21 21:26S 00°07' W 047°40'1 1.1
2018-Mar-21 20:59S 00°06' W 047°40'2 0.9
2018-Mar-21 18:48S 00°07' W 047°42'1 3.7
2018-Mar-21 18:30S 00°08' W 047°42'1 2.2
2018-Mar-21 18:00S 00°09' W 047°42'2 4.4
2018-Mar-21 17:30S 00°10' W 047°44'2 4.1
2018-Mar-21 17:00S 00°10' W 047°46'2 4.2
2018-Mar-21 16:28S 00°11' W 047°48'0 0.7
2018-Mar-21 15:58S 00°12' W 047°47'1 1.0
2018-Mar-21 15:28S 00°12' W 047°47'1 1.9
2018-Mar-21 14:55S 00°12' W 047°46'1 2.5
2018-Mar-21 14:30S 00°12' W 047°45'2 3.0
2018-Mar-21 13:59S 00°11' W 047°43'1 2.7
2018-Mar-21 13:29S 00°11' W 047°42'1 2.7
2018-Mar-21 13:00S 00°10' W 047°41'1 3.0
2018-Mar-21 12:30S 00°09' W 047°40'1 2.6
2018-Mar-21 11:58S 00°08' W 047°39'1 2.4
2018-Mar-21 11:28S 00°07' W 047°38'1 2.4
2018-Mar-21 10:58S 00°06' W 047°38'2 2.3
2018-Mar-21 10:16S 00°04' W 047°37'1 1.9
2018-Mar-21 09:52S 00°04' W 047°37'1 1.7
2018-Mar-21 09:29S 00°03' W 047°37'1 1.4
2018-Mar-21 08:54S 00°02' W 047°36'0 0.8
2018-Mar-21 08:30S 00°02' W 047°36'1 0.9
2018-Mar-21 07:56S 00°01' W 047°37'1 1.0
2018-Mar-21 07:18S 00°01' W 047°37'0 0.9
2018-Mar-21 06:59S 00°01' W 047°37'1 1.3
2018-Mar-21 06:30S 00°01' W 047°38'1 1.2
2018-Mar-21 05:52S 00°02' W 047°39'1 1.6
2018-Mar-21 05:28S 00°02' W 047°39'1 1.3
2018-Mar-21 04:59S 00°03' W 047°40'0 0.9
2018-Mar-21 04:28S 00°03' W 047°40'0 0.6
2018-Mar-21 03:58S 00°03' W 047°40'0 0.5
2018-Mar-21 03:28S 00°03' W 047°40'1 1.0
2018-Mar-21 02:55S 00°04' W 047°39'0 0.7
2018-Mar-21 02:14S 00°04' W 047°39'2 9.3
2018-Mar-21 02:01S 00°05' W 047°41'611.1
2018-Mar-21 01:30S 00°07' W 047°46'510.6
2018-Mar-21 01:00S 00°10' W 047°50'5 9.9
2018-Mar-21 00:30S 00°13' W 047°54'5 9.8
2018-Mar-21 00:00S 00°17' W 047°57'5 9.4
2018-Mar-20 23:30S 00°19' W 048°01'510.3
2018-Mar-20 23:00S 00°21' W 048°06'612.3
2018-Mar-20 22:30S 00°24' W 048°11'714.4
2018-Mar-20 22:00S 00°29' W 048°16'815.8
2018-Mar-20 21:30S 00°36' W 048°21'816.3
2018-Mar-20 21:00S 00°43' W 048°25'816.1
2018-Mar-20 20:30S 00°50' W 048°29'714.5
2018-Mar-20 20:01S 00°57' W 048°26'714.6
2018-Mar-20 19:31S 01°03' W 048°30'612.2
2018-Mar-20 19:00S 01°09' W 048°32'4 8.6
2018-Mar-20 18:30S 01°13' W 048°34'612.4
2018-Mar-20 18:00S 01°18' W 048°38'611.7
2018-Mar-20 17:30S 01°22' W 048°41'611.7
2018-Mar-20 17:00S 01°27' W 048°44'510.0
2018-Mar-20 16:30S 01°32' W 048°45'0 0.4
2018-Mar-20 15:58S 01°32' W 048°45'0 0.0
2018-Mar-20 15:28S 01°32' W 048°45'0 0.0
2018-Mar-20 14:46S 01°32' W 048°45'0 0.0
2018-Mar-20 14:28S 01°32' W 048°45'0 0.0
2018-Mar-20 13:58S 01°32' W 048°45'0 0.0
2018-Mar-20 13:28S 01°32' W 048°45'0 0.0
2018-Mar-20 12:52S 01°32' W 048°45'0 0.0
2018-Mar-20 12:28S 01°32' W 048°45'0 0.0
2018-Mar-20 11:58S 01°32' W 048°45'0 0.0
2018-Mar-20 11:28S 01°32' W 048°45'0 0.0
2018-Mar-20 10:58S 01°32' W 048°45'0 0.0
2018-Mar-20 10:28S 01°32' W 048°45'0 0.0
2018-Mar-20 09:52S 01°32' W 048°45'0 0.0
2018-Mar-20 09:27S 01°32' W 048°45'0 0.0
2018-Mar-20 08:58S 01°32' W 048°45'0 0.0
2018-Mar-20 08:28S 01°32' W 048°45'0 0.0
2018-Mar-20 07:58S 01°32' W 048°45'0 0.0
2018-Mar-20 07:10S 01°32' W 048°45'0 0.0
2018-Mar-20 06:52S 01°32' W 048°45'0 0.0
2018-Mar-20 06:31S 01°32' W 048°45'0 0.0
2018-Mar-20 06:01S 01°32' W 048°45'0 0.0
2018-Mar-20 05:31S 01°32' W 048°45'0 0.0
2018-Mar-20 04:58S 01°32' W 048°45'0 0.0
2018-Mar-20 03:19S 01°32' W 048°45'0 0.0
2018-Mar-20 02:54S 01°32' W 048°45'0 0.0
2018-Mar-20 00:22S 01°32' W 048°45'0 0.0
2018-Mar-19 23:58S 01°32' W 048°45'0 0.0
2018-Mar-19 23:28S 01°32' W 048°45'0 0.0
2018-Mar-19 23:00S 01°32' W 048°45'0 0.0
2018-Mar-19 22:30S 01°32' W 048°45'0 0.0
2018-Mar-19 22:01S 01°32' W 048°45'0 0.0
2018-Mar-19 21:28S 01°32' W 048°45'0 0.0
2018-Mar-19 20:58S 01°32' W 048°45'0 0.0
2018-Mar-19 20:27S 01°32' W 048°45'0 0.0
2018-Mar-19 19:51S 01°32' W 048°45'0 0.0
2018-Mar-19 19:13S 01°32' W 048°45'0 0.0
2018-Mar-19 18:55S 01°32' W 048°45'0 0.0
2018-Mar-19 18:30S 01°32' W 048°45'0 0.0
2018-Mar-19 18:01S 01°32' W 048°45'0 0.0
2018-Mar-19 17:30S 01°32' W 048°45'0 0.0
2018-Mar-19 17:00S 01°32' W 048°45'0 0.0
2018-Mar-19 16:24S 01°32' W 048°45'0 0.0
2018-Mar-19 16:00S 01°32' W 048°45'0 0.0
2018-Mar-19 15:30S 01°32' W 048°45'0 0.0
2018-Mar-19 14:55S 01°32' W 048°45'0 0.0
2018-Mar-19 14:25S 01°32' W 048°45'0 0.0
2018-Mar-19 13:54S 01°32' W 048°45'0 0.0
2018-Mar-19 13:31S 01°32' W 048°45'0 0.0
2018-Mar-19 13:00S 01°32' W 048°45'0 0.0
2018-Mar-19 12:30S 01°32' W 048°45'0 0.0
2018-Mar-19 11:54S 01°32' W 048°45'0 0.0
2018-Mar-19 11:31S 01°32' W 048°45'0 0.0
2018-Mar-19 11:01S 01°32' W 048°45'0 0.0
2018-Mar-19 10:30S 01°32' W 048°45'0 0.0
2018-Mar-19 10:00S 01°32' W 048°45'0 0.0
2018-Mar-19 09:25S 01°32' W 048°45'0 0.0
2018-Mar-19 09:00S 01°32' W 048°45'0 0.0
2018-Mar-19 08:31S 01°32' W 048°45'0 0.0
2018-Mar-19 08:00S 01°32' W 048°45'0 0.0
2018-Mar-19 07:30S 01°32' W 048°45'0 0.0
2018-Mar-19 07:00S 01°32' W 048°45'0 0.0
2018-Mar-19 06:30S 01°32' W 048°45'0 0.0
2018-Mar-19 06:00S 01°32' W 048°45'0 0.0
2018-Mar-19 05:30S 01°32' W 048°45'0 0.0
2018-Mar-19 05:00S 01°32' W 048°45'0 0.0
2018-Mar-19 04:30S 01°32' W 048°45'0 0.0
2018-Mar-19 04:00S 01°32' W 048°45'0 0.0
2018-Mar-19 03:24S 01°32' W 048°45'0 0.0
2018-Mar-19 03:00S 01°32' W 048°45'0 0.0
2018-Mar-19 02:30S 01°32' W 048°45'0 0.0
2018-Mar-19 02:00S 01°32' W 048°45'0 0.0
2018-Mar-19 01:30S 01°32' W 048°45'0 0.0
2018-Mar-19 01:00S 01°32' W 048°45'0 0.0
2018-Mar-19 00:30S 01°32' W 048°45'0 0.0
2018-Mar-19 00:00S 01°32' W 048°45'0 0.0
2018-Mar-18 23:30S 01°32' W 048°45'0 0.0
2018-Mar-18 23:00S 01°32' W 048°45'0 0.0
2018-Mar-18 22:24S 01°32' W 048°45'0 0.0
2018-Mar-18 21:57S 01°32' W 048°45'0 0.0
2018-Mar-18 21:30S 01°32' W 048°45'0 0.0
2018-Mar-18 21:00S 01°32' W 048°45'0 0.0
2018-Mar-18 19:42S 01°32' W 048°45'0 0.0
2018-Mar-18 19:30S 01°32' W 048°45'0 0.0
2018-Mar-18 19:00S 01°32' W 048°45'0 0.0
2018-Mar-18 18:24S 01°32' W 048°45'0 0.0
2018-Mar-18 18:00S 01°32' W 048°45'0 0.0
2018-Mar-18 16:18S 01°32' W 048°45'0 0.0
2018-Mar-18 15:42S 01°32' W 048°45'0 0.0
2018-Mar-18 15:24S 01°32' W 048°45'0 0.0
2018-Mar-18 15:00S 01°32' W 048°45'0 0.0
2018-Mar-18 14:30S 01°32' W 048°45'0 0.0
2018-Mar-18 13:54S 01°32' W 048°45'0 0.0
2018-Mar-18 13:30S 01°32' W 048°45'0 0.0
2018-Mar-18 13:00S 01°32' W 048°45'0 0.0
2018-Mar-18 11:42S 01°32' W 048°45'0 0.0
2018-Mar-18 11:24S 01°32' W 048°45'0 0.0
2018-Mar-18 11:00S 01°32' W 048°45'0 0.0
2018-Mar-18 10:30S 01°32' W 048°45'0 0.0
2018-Mar-18 09:54S 01°32' W 048°45'0 0.0
2018-Mar-18 09:30S 01°32' W 048°45'0 0.0
2018-Mar-18 09:00S 01°32' W 048°45'0 0.0
2018-Mar-18 08:24S 01°32' W 048°45'0 0.0
2018-Mar-18 08:00S 01°32' W 048°45'0 0.0
2018-Mar-18 03:03S 01°32' W 048°45'0 0.0
2018-Mar-18 02:57S 01°32' W 048°45'0 0.0
2018-Mar-18 02:27S 01°32' W 048°45'0 0.0
2018-Mar-18 01:57S 01°32' W 048°45'0 0.0
2018-Mar-18 01:27S 01°32' W 048°45'0 0.0
2018-Mar-18 00:57S 01°32' W 048°45'0 0.0
2018-Mar-18 00:27S 01°32' W 048°45'0 0.0
2018-Mar-17 23:51S 01°32' W 048°45'0 0.0
2018-Mar-17 23:27S 01°32' W 048°45'0 0.0
2018-Mar-17 22:51S 01°32' W 048°45'0 0.0
2018-Mar-17 22:27S 01°32' W 048°45'0 0.0
2018-Mar-17 21:51S 01°32' W 048°45'0 0.0
2018-Mar-17 21:21S 01°32' W 048°45'0 0.0
2018-Mar-17 20:57S 01°32' W 048°45'0 0.0
2018-Mar-17 18:06S 01°32' W 048°45'0 0.0
2018-Mar-17 18:00S 01°32' W 048°45'0 0.0
2018-Mar-17 17:30S 01°32' W 048°45'0 0.0
2018-Mar-17 16:57S 01°32' W 048°45'0 0.0
2018-Mar-17 16:27S 01°32' W 048°45'0 0.0
2018-Mar-17 16:00S 01°32' W 048°45'0 0.0
2018-Mar-17 15:27S 01°32' W 048°45'0 0.0
2018-Mar-17 15:00S 01°32' W 048°45'0 0.0
2018-Mar-17 14:30S 01°32' W 048°45'0 0.0
2018-Mar-17 13:57S 01°32' W 048°45'0 0.0
2018-Mar-17 13:27S 01°32' W 048°45'0 0.0
2018-Mar-17 13:00S 01°32' W 048°45'0 0.0
2018-Mar-17 12:30S 01°32' W 048°45'0 0.0
2018-Mar-17 12:00S 01°32' W 048°45'0 0.0
2018-Mar-17 11:30S 01°32' W 048°45'0 0.0
2018-Mar-17 11:00S 01°32' W 048°45'0 0.0
2018-Mar-17 10:30S 01°32' W 048°45'0 0.0
2018-Mar-17 09:57S 01°32' W 048°45'0 0.0
2018-Mar-17 09:30S 01°32' W 048°45'0 0.0
2018-Mar-17 08:57S 01°32' W 048°45'0 0.0
2018-Mar-17 08:30S 01°32' W 048°45'0 0.0
2018-Mar-17 08:00S 01°32' W 048°45'0 0.0
2018-Mar-17 07:30S 01°32' W 048°45'0 0.0
2018-Mar-17 06:57S 01°32' W 048°45'0 0.0
2018-Mar-17 06:27S 01°32' W 048°45'0 0.0
2018-Mar-17 06:00S 01°32' W 048°45'0 0.0
2018-Mar-17 05:30S 01°32' W 048°45'0 0.0
2018-Mar-17 04:57S 01°32' W 048°45'0 0.0
2018-Mar-17 04:30S 01°32' W 048°45'0 0.0
2018-Mar-17 03:51S 01°32' W 048°45'0 0.0
2018-Mar-17 03:30S 01°32' W 048°45'0 0.0
2018-Mar-17 02:57S 01°32' W 048°45'0 0.0
2018-Mar-17 02:30S 01°32' W 048°45'0 0.0
2018-Mar-17 02:00S 01°32' W 048°45'0 0.0
2018-Mar-17 01:30S 01°32' W 048°45'0 0.0
2018-Mar-17 01:00S 01°32' W 048°45'0 0.1
2018-Mar-17 00:30S 01°32' W 048°45'1 1.6
2018-Mar-17 00:00S 01°32' W 048°46'  

Dump ship's entire track history